createdAt,value
2017-06-15T00:01:18.378Z,4
2017-06-15T00:02:18.640Z,4
2017-06-15T00:03:18.579Z,4
2017-06-15T00:04:18.512Z,4
2017-06-15T00:05:18.455Z,4
2017-06-15T00:06:18.393Z,4
2017-06-15T00:07:17.672Z,4
2017-06-15T00:08:17.613Z,4
2017-06-15T00:09:17.875Z,4
2017-06-15T00:10:17.816Z,4
2017-06-15T00:11:18.080Z,4
2017-06-15T00:12:18.022Z,4
2017-06-15T00:13:17.954Z,4
2017-06-15T00:14:17.896Z,4
2017-06-15T00:15:17.830Z,4
2017-06-15T00:16:17.447Z,4
2017-06-15T00:17:17.713Z,4
2017-06-15T00:18:17.643Z,4
2017-06-15T00:19:17.583Z,4
2017-06-15T00:20:17.193Z,4
2017-06-15T00:21:17.472Z,4
2017-06-15T00:22:17.392Z,4
2017-06-15T00:23:17.332Z,4
2017-06-15T00:24:16.940Z,4
2017-06-15T00:25:16.892Z,4
2017-06-15T00:26:16.814Z,4
2017-06-15T00:27:17.083Z,4
2017-06-15T00:28:16.363Z,4
2017-06-15T00:29:16.959Z,4
2017-06-15T00:30:16.897Z,4
2017-06-15T00:31:16.837Z,4
2017-06-15T00:32:16.441Z,4
2017-06-15T00:33:16.715Z,4
2017-06-15T00:34:16.645Z,4
2017-06-15T00:35:16.256Z,4
2017-06-15T00:36:16.518Z,4
2017-06-15T00:37:16.131Z,4
2017-06-15T00:38:16.394Z,8
2017-06-15T00:39:16.008Z,8
2017-06-15T00:40:16.311Z,8
2017-06-15T00:41:16.206Z,8
2017-06-15T00:42:16.148Z,8
2017-06-15T00:43:16.117Z,8
2017-06-15T00:44:16.021Z,8
2017-06-15T00:45:15.993Z,12
2017-06-15T00:46:15.895Z,12
2017-06-15T00:47:15.838Z,12
2017-06-15T00:48:15.770Z,12
2017-06-15T00:49:15.381Z,12
2017-06-15T00:50:15.318Z,12
2017-06-15T00:51:15.586Z,12
2017-06-15T00:52:15.194Z,12
2017-06-15T00:53:15.459Z,12
2017-06-15T00:54:15.395Z,12
2017-06-15T00:55:15.338Z,12
2017-06-15T00:56:15.275Z,12
2017-06-15T00:57:15.213Z,12
2017-06-15T00:58:14.824Z,12
2017-06-15T00:59:15.093Z,12
2017-06-15T01:00:15.028Z,12
2017-06-15T01:01:14.960Z,12
2017-06-15T01:02:14.933Z,12
2017-06-15T01:03:14.834Z,12
2017-06-15T01:04:14.777Z,12
2017-06-15T01:05:14.714Z,12
2017-06-15T01:06:14.649Z,12
2017-06-15T01:07:14.586Z,12
2017-06-15T01:08:14.525Z,12
2017-06-15T01:09:14.459Z,12
2017-06-15T01:10:14.401Z,12
2017-06-15T01:11:14.335Z,12
2017-06-15T01:12:13.959Z,12
2017-06-15T01:13:14.215Z,12
2017-06-15T01:14:13.824Z,12
2017-06-15T01:15:13.758Z,12
2017-06-15T01:16:13.697Z,12
2017-06-15T01:17:13.962Z,12
2017-06-15T01:18:13.902Z,12
2017-06-15T01:19:13.837Z,12
2017-06-15T01:20:13.782Z,12
2017-06-15T01:21:13.714Z,12
2017-06-15T01:22:13.651Z,12
2017-06-15T01:23:13.838Z,12
2017-06-15T01:24:13.527Z,12
2017-06-15T01:25:13.469Z,12
2017-06-15T01:26:13.404Z,12
2017-06-15T01:27:13.336Z,12
2017-06-15T01:28:13.276Z,12
2017-06-15T01:29:13.246Z,12
2017-06-15T01:30:13.303Z,12
2017-06-15T01:31:13.091Z,12
2017-06-15T01:32:12.725Z,12
2017-06-15T01:33:12.963Z,12
2017-06-15T01:34:12.904Z,12
2017-06-15T01:35:12.945Z,12
2017-06-15T01:36:12.449Z,12
2017-06-15T01:37:12.719Z,12
2017-06-15T01:38:12.656Z,12
2017-06-15T01:39:12.591Z,12
2017-06-15T01:40:12.202Z,12
2017-06-15T01:41:12.464Z,12
2017-06-15T01:42:12.407Z,12
2017-06-15T01:43:12.337Z,12
2017-06-15T01:44:11.947Z,12
2017-06-15T01:45:12.214Z,12
2017-06-15T01:46:12.152Z,12
2017-06-15T01:47:12.090Z,12
2017-06-15T01:48:12.029Z,12
2017-06-15T01:49:11.968Z,12
2017-06-15T01:50:11.903Z,12
2017-06-15T01:51:11.521Z,12
2017-06-15T01:52:11.782Z,12
2017-06-15T01:53:11.715Z,12
2017-06-15T01:54:11.654Z,12
2017-06-15T01:55:11.595Z,12
2017-06-15T01:56:11.533Z,12
2017-06-15T01:57:11.467Z,12
2017-06-15T01:58:11.404Z,12
2017-06-15T01:59:11.343Z,12
2017-06-15T02:00:11.283Z,12
2017-06-15T02:01:11.218Z,12
2017-06-15T02:02:10.826Z,12
2017-06-15T02:03:11.097Z,12
2017-06-15T02:04:11.029Z,12
2017-06-15T02:05:10.967Z,12
2017-06-15T02:06:10.575Z,12
2017-06-15T02:07:10.860Z,12
2017-06-15T02:08:10.775Z,12
2017-06-15T02:09:10.721Z,12
2017-06-15T02:10:10.334Z,12
2017-06-15T02:11:10.794Z,12
2017-06-15T02:12:10.550Z,12
2017-06-15T02:13:10.465Z,12
2017-06-15T02:14:10.076Z,12
2017-06-15T02:15:10.011Z,12
2017-06-15T02:16:10.321Z,12
2017-06-15T02:17:10.221Z,12
2017-06-15T02:18:10.153Z,12
2017-06-15T02:19:10.092Z,12
2017-06-15T02:20:09.706Z,12
2017-06-15T02:21:09.972Z,12
2017-06-15T02:22:09.250Z,12
2017-06-15T02:23:09.847Z,12
2017-06-15T02:24:09.451Z,12
2017-06-15T02:25:09.717Z,12
2017-06-15T02:26:09.002Z,12
2017-06-15T02:27:09.593Z,12
2017-06-15T02:28:09.531Z,12
2017-06-15T02:29:09.470Z,8
2017-06-15T02:30:09.078Z,8
2017-06-15T02:31:09.344Z,8
2017-06-15T02:32:09.281Z,8
2017-06-15T02:33:09.219Z,8
2017-06-15T02:34:08.829Z,8
2017-06-15T02:35:08.764Z,8
2017-06-15T02:36:09.036Z,8
2017-06-15T02:37:08.967Z,8
2017-06-15T02:38:08.906Z,8
2017-06-15T02:39:08.841Z,8
2017-06-15T02:40:08.781Z,8
2017-06-15T02:41:08.722Z,8
2017-06-15T02:42:08.659Z,8
2017-06-15T02:43:08.597Z,8
2017-06-15T02:44:08.530Z,8
2017-06-15T02:45:08.707Z,8
2017-06-15T02:46:08.405Z,8
2017-06-15T02:47:08.342Z,8
2017-06-15T02:48:08.285Z,8
2017-06-15T02:49:08.217Z,8
2017-06-15T02:50:08.155Z,8
2017-06-15T02:51:08.092Z,12
2017-06-15T02:52:07.701Z,12
2017-06-15T02:53:07.971Z,12
2017-06-15T02:54:07.578Z,12
2017-06-15T02:55:07.513Z,12
2017-06-15T02:56:07.783Z,12
2017-06-15T02:57:07.719Z,12
2017-06-15T02:58:07.655Z,12
2017-06-15T02:59:07.594Z,12
2017-06-15T03:00:07.205Z,12
2017-06-15T03:01:07.469Z,8
2017-06-15T03:02:07.077Z,12
2017-06-15T03:03:07.341Z,8
2017-06-15T03:04:07.280Z,8
2017-06-15T03:05:07.218Z,8
2017-06-15T03:06:07.157Z,8
2017-06-15T03:07:07.096Z,12
2017-06-15T03:08:07.041Z,12
2017-06-15T03:09:06.977Z,12
2017-06-15T03:10:06.919Z,12
2017-06-15T03:11:06.514Z,8
2017-06-15T03:12:06.787Z,8
2017-06-15T03:13:06.722Z,12
2017-06-15T03:14:06.665Z,12
2017-06-15T03:15:06.595Z,12
2017-06-15T03:16:06.536Z,12
2017-06-15T03:17:06.471Z,16
2017-06-15T03:18:06.415Z,16
2017-06-15T03:19:06.346Z,16
2017-06-15T03:20:06.303Z,20
2017-06-15T03:21:06.218Z,24
2017-06-15T03:22:06.162Z,24
2017-06-15T03:23:06.095Z,24
2017-06-15T03:24:06.277Z,28
2017-06-15T03:25:05.640Z,28
2017-06-15T03:26:05.908Z,28
2017-06-15T03:27:05.846Z,32
2017-06-15T03:28:05.457Z,32
2017-06-15T03:29:05.718Z,36
2017-06-15T03:30:05.663Z,40
2017-06-15T03:31:05.596Z,40
2017-06-15T03:32:05.529Z,44
2017-06-15T03:33:05.149Z,48
2017-06-15T03:34:05.619Z,52
2017-06-15T03:35:05.218Z,52
2017-06-15T03:36:05.520Z,56
2017-06-15T03:37:05.219Z,60
2017-06-15T03:38:05.363Z,60
2017-06-15T03:39:05.094Z,64
2017-06-15T03:40:05.032Z,68
2017-06-15T03:41:05.177Z,68
2017-06-15T03:42:04.914Z,68
2017-06-15T03:43:04.846Z,68
2017-06-15T03:44:04.782Z,68
2017-06-15T03:45:04.721Z,72
2017-06-15T03:46:04.665Z,76
2017-06-15T03:47:04.269Z,76
2017-06-15T03:48:04.539Z,80
2017-06-15T03:49:04.144Z,76
2017-06-15T03:50:04.411Z,80
2017-06-15T03:51:04.349Z,80
2017-06-15T03:52:04.284Z,84
2017-06-15T03:53:04.220Z,84
2017-06-15T03:54:04.159Z,88
2017-06-15T03:55:04.094Z,88
2017-06-15T03:56:03.709Z,84
2017-06-15T03:57:03.643Z,88
2017-06-15T03:58:03.584Z,88
2017-06-15T03:59:03.844Z,88
2017-06-15T04:00:04.139Z,56
2017-06-15T04:01:03.922Z,24
2017-06-15T04:02:03.328Z,24
2017-06-15T04:03:03.280Z,24
2017-06-15T04:04:03.532Z,24
2017-06-15T04:05:03.477Z,24
2017-06-15T04:06:03.408Z,24
2017-06-15T04:07:03.344Z,24
2017-06-15T04:08:03.282Z,24
2017-06-15T04:09:03.219Z,24
2017-06-15T04:10:03.156Z,24
2017-06-15T04:11:03.095Z,24
2017-06-15T04:12:03.237Z,24
2017-06-15T04:13:02.970Z,24
2017-06-15T04:14:02.912Z,24
2017-06-15T04:15:03.089Z,20
2017-06-15T04:16:02.784Z,24
2017-06-15T04:17:02.923Z,24
2017-06-15T04:18:02.660Z,24
2017-06-15T04:19:02.598Z,28
2017-06-15T04:20:02.536Z,28
2017-06-15T04:21:02.469Z,28
2017-06-15T04:22:02.410Z,28
2017-06-15T04:23:02.550Z,28
2017-06-15T04:24:02.283Z,28
2017-06-15T04:25:02.222Z,28
2017-06-15T04:26:02.159Z,28
2017-06-15T04:27:02.095Z,28
2017-06-15T04:28:02.050Z,28
2017-06-15T04:29:01.642Z,24
2017-06-15T04:30:01.582Z,28
2017-06-15T04:31:01.849Z,24
2017-06-15T04:32:01.783Z,24
2017-06-15T04:33:01.927Z,28
2017-06-15T04:34:01.659Z,28
2017-06-15T04:35:01.597Z,28
2017-06-15T04:36:01.536Z,32
2017-06-15T04:37:01.470Z,32
2017-06-15T04:38:01.412Z,32
2017-06-15T04:39:01.349Z,44
2017-06-15T04:40:01.289Z,40
2017-06-15T04:41:01.232Z,40
2017-06-15T04:42:01.160Z,40
2017-06-15T04:43:01.107Z,52
2017-06-15T04:44:01.036Z,72
2017-06-15T04:45:00.973Z,48
2017-06-15T04:46:00.940Z,84
2017-06-15T04:47:00.846Z,64
2017-06-15T04:48:00.787Z,44
2017-06-15T04:49:00.722Z,44
2017-06-15T04:50:00.661Z,44
2017-06-15T04:51:00.605Z,72
2017-06-15T04:52:00.535Z,104
2017-06-15T04:53:00.479Z,104
2017-06-15T04:54:00.410Z,112
2017-06-15T04:55:00.353Z,156
2017-06-15T04:56:00.286Z,156
2017-06-15T04:57:00.224Z,156
2017-06-15T04:58:00.162Z,156
2017-06-15T04:59:00.100Z,156
2017-06-15T05:00:00.037Z,152
2017-06-15T05:00:59.976Z,152
2017-06-15T05:01:59.909Z,156
2017-06-15T05:02:59.854Z,156
2017-06-15T05:03:59.787Z,160
2017-06-15T05:04:59.726Z,164
2017-06-15T05:05:59.661Z,164
2017-06-15T05:06:59.599Z,160
2017-06-15T05:07:59.210Z,160
2017-06-15T05:08:59.476Z,160
2017-06-15T05:09:59.410Z,156
2017-06-15T05:10:59.356Z,156
2017-06-15T05:11:58.957Z,160
2017-06-15T05:12:59.226Z,152
2017-06-15T05:13:59.167Z,152
2017-06-15T05:14:59.097Z,148
2017-06-15T05:15:59.036Z,144
2017-06-15T05:16:58.974Z,152
2017-06-15T05:17:58.911Z,160
2017-06-15T05:18:58.855Z,156
2017-06-15T05:19:58.789Z,160
2017-06-15T05:20:58.725Z,156
2017-06-15T05:21:58.666Z,160
2017-06-15T05:22:58.605Z,156
2017-06-15T05:23:58.537Z,156
2017-06-15T05:24:58.478Z,152
2017-06-15T05:25:58.413Z,148
2017-06-15T05:26:58.350Z,160
2017-06-15T05:27:58.294Z,156
2017-06-15T05:28:58.222Z,160
2017-06-15T05:29:58.165Z,164
2017-06-15T05:30:58.101Z,156
2017-06-15T05:31:58.036Z,160
2017-06-15T05:32:57.977Z,156
2017-06-15T05:33:57.917Z,152
2017-06-15T05:34:57.853Z,160
2017-06-15T05:35:57.788Z,160
2017-06-15T05:36:57.398Z,164
2017-06-15T05:37:57.666Z,160
2017-06-15T05:38:57.271Z,156
2017-06-15T05:39:57.211Z,156
2017-06-15T05:40:57.477Z,160
2017-06-15T05:41:57.414Z,156
2017-06-15T05:42:57.356Z,160
2017-06-15T05:43:57.288Z,156
2017-06-15T05:44:57.229Z,160
2017-06-15T05:45:56.874Z,164
2017-06-15T05:46:56.781Z,164
2017-06-15T05:47:57.037Z,156
2017-06-15T05:48:56.647Z,164
2017-06-15T05:49:56.914Z,160
2017-06-15T05:50:56.851Z,164
2017-06-15T05:51:56.788Z,156
2017-06-15T05:52:56.737Z,152
2017-06-15T05:53:56.664Z,152
2017-06-15T05:54:56.600Z,124
2017-06-15T05:55:56.544Z,148
2017-06-15T05:56:56.476Z,128
2017-06-15T05:57:56.415Z,124
2017-06-15T05:58:56.354Z,136
2017-06-15T05:59:56.290Z,148
2017-06-15T06:00:56.225Z,144
2017-06-15T06:01:56.168Z,140
2017-06-15T06:02:56.103Z,140
2017-06-15T06:03:55.710Z,144
2017-06-15T06:04:55.976Z,144
2017-06-15T06:05:55.913Z,148
2017-06-15T06:06:55.853Z,148
2017-06-15T06:07:55.791Z,152
2017-06-15T06:08:55.727Z,156
2017-06-15T06:09:55.665Z,152
2017-06-15T06:10:55.321Z,156
2017-06-15T06:11:55.212Z,152
2017-06-15T06:12:55.474Z,148
2017-06-15T06:13:55.416Z,148
2017-06-15T06:14:55.355Z,136
2017-06-15T06:15:55.291Z,132
2017-06-15T06:16:55.226Z,132
2017-06-15T06:17:54.837Z,124
2017-06-15T06:18:55.111Z,144
2017-06-15T06:19:55.041Z,148
2017-06-15T06:20:54.988Z,144
2017-06-15T06:21:54.919Z,152
2017-06-15T06:22:54.855Z,144
2017-06-15T06:23:54.795Z,156
2017-06-15T06:24:54.732Z,160
2017-06-15T06:25:54.667Z,164
2017-06-15T06:26:54.279Z,164
2017-06-15T06:27:54.543Z,164
2017-06-15T06:28:53.829Z,160
2017-06-15T06:29:54.420Z,160
2017-06-15T06:30:54.026Z,164
2017-06-15T06:31:54.298Z,152
2017-06-15T06:32:54.232Z,160
2017-06-15T06:33:54.167Z,152
2017-06-15T06:34:53.776Z,152
2017-06-15T06:35:54.041Z,156
2017-06-15T06:36:53.984Z,156
2017-06-15T06:37:53.923Z,160
2017-06-15T06:38:53.858Z,144
2017-06-15T06:39:53.791Z,160
2017-06-15T06:40:53.731Z,152
2017-06-15T06:41:53.342Z,152
2017-06-15T06:42:53.608Z,160
2017-06-15T06:43:53.546Z,152
2017-06-15T06:44:53.156Z,152
2017-06-15T06:45:53.416Z,152
2017-06-15T06:46:53.355Z,160
2017-06-15T06:47:53.301Z,160
2017-06-15T06:48:53.232Z,164
2017-06-15T06:49:53.169Z,160
2017-06-15T06:50:53.105Z,164
2017-06-15T06:51:53.050Z,156
2017-06-15T06:52:52.980Z,156
2017-06-15T06:53:52.923Z,160
2017-06-15T06:54:52.857Z,156
2017-06-15T06:55:52.465Z,152
2017-06-15T06:56:52.732Z,140
2017-06-15T06:57:52.669Z,140
2017-06-15T06:58:52.609Z,140
2017-06-15T06:59:52.547Z,144
2017-06-15T07:00:51.830Z,132
2017-06-15T07:01:52.422Z,136
2017-06-15T07:02:52.034Z,144
2017-06-15T07:03:52.304Z,136
2017-06-15T07:04:52.470Z,140
2017-06-15T07:05:51.840Z,140
2017-06-15T07:06:52.107Z,148
2017-06-15T07:07:52.047Z,152
2017-06-15T07:08:51.665Z,148
2017-06-15T07:09:51.591Z,148
2017-06-15T07:10:51.531Z,156
2017-06-15T07:11:51.798Z,148
2017-06-15T07:12:51.733Z,168
2017-06-15T07:13:51.682Z,180
2017-06-15T07:14:51.609Z,180
2017-06-15T07:15:51.554Z,180
2017-06-15T07:16:51.483Z,180
2017-06-15T07:17:51.421Z,180
2017-06-15T07:18:51.361Z,168
2017-06-15T07:19:51.301Z,172
2017-06-15T07:20:51.233Z,172
2017-06-15T07:21:51.182Z,172
2017-06-15T07:22:51.114Z,180
2017-06-15T07:23:51.138Z,184
2017-06-15T07:24:51.098Z,192
2017-06-15T07:25:50.925Z,176
2017-06-15T07:26:50.865Z,176
2017-06-15T07:27:50.799Z,172
2017-06-15T07:28:50.738Z,184
2017-06-15T07:29:50.678Z,164
2017-06-15T07:30:50.740Z,152
2017-06-15T07:31:50.547Z,152
2017-06-15T07:32:50.494Z,156
2017-06-15T07:33:50.436Z,144
2017-06-15T07:34:50.035Z,160
2017-06-15T07:35:49.975Z,164
2017-06-15T07:36:50.253Z,168
2017-06-15T07:37:50.184Z,168
2017-06-15T07:38:50.118Z,156
2017-06-15T07:39:50.067Z,160
2017-06-15T07:40:49.991Z,156
2017-06-15T07:41:49.605Z,152
2017-06-15T07:42:49.873Z,156
2017-06-15T07:43:49.481Z,152
2017-06-15T07:44:49.416Z,160
2017-06-15T07:45:49.363Z,164
2017-06-15T07:46:49.625Z,152
2017-06-15T07:47:49.558Z,156
2017-06-15T07:48:49.495Z,156
2017-06-15T07:49:49.429Z,156
2017-06-15T07:50:49.375Z,152
2017-06-15T07:51:49.311Z,148
2017-06-15T07:52:49.246Z,148
2017-06-15T07:53:48.531Z,152
2017-06-15T07:54:49.121Z,148
2017-06-15T07:55:49.059Z,144
2017-06-15T07:56:48.673Z,136
2017-06-15T07:57:48.942Z,140
2017-06-15T07:58:49.295Z,132
2017-06-15T07:59:48.483Z,144
2017-06-15T08:00:48.757Z,136
2017-06-15T08:01:48.362Z,136
2017-06-15T08:02:48.631Z,128
2017-06-15T08:03:48.564Z,140
2017-06-15T08:04:48.507Z,128
2017-06-15T08:05:48.439Z,148
2017-06-15T08:06:48.384Z,140
2017-06-15T08:07:48.316Z,144
2017-06-15T08:08:48.255Z,140
2017-06-15T08:09:48.191Z,136
2017-06-15T08:10:48.130Z,132
2017-06-15T08:11:48.071Z,136
2017-06-15T08:12:47.675Z,120
2017-06-15T08:13:47.943Z,72
2017-06-15T08:14:47.882Z,132
2017-06-15T08:15:47.878Z,132
2017-06-15T08:16:47.429Z,140
2017-06-15T08:17:47.710Z,136
2017-06-15T08:18:47.642Z,136
2017-06-15T08:19:47.582Z,132
2017-06-15T08:20:47.512Z,132
2017-06-15T08:21:47.124Z,128
2017-06-15T08:22:47.388Z,128
2017-06-15T08:23:47.325Z,132
2017-06-15T08:24:47.269Z,128
2017-06-15T08:25:46.874Z,124
2017-06-15T08:26:47.137Z,132
2017-06-15T08:27:46.750Z,124
2017-06-15T08:28:46.690Z,132
2017-06-15T08:29:46.953Z,132
2017-06-15T08:30:47.102Z,132
2017-06-15T08:31:46.502Z,132
2017-06-15T08:32:46.318Z,132
2017-06-15T08:33:46.382Z,132
2017-06-15T08:34:46.657Z,132
2017-06-15T08:35:46.582Z,132
2017-06-15T08:36:46.522Z,132
2017-06-15T08:37:46.463Z,72
2017-06-15T08:38:46.410Z,96
2017-06-15T08:39:46.039Z,128
2017-06-15T08:40:46.283Z,128
2017-06-15T08:41:46.244Z,128
2017-06-15T08:42:46.154Z,52
2017-06-15T08:43:46.092Z,52
2017-06-15T08:44:46.033Z,108
2017-06-15T08:45:45.971Z,132
2017-06-15T08:46:45.906Z,128
2017-06-15T08:47:45.847Z,140
2017-06-15T08:48:45.465Z,132
2017-06-15T08:49:45.728Z,124
2017-06-15T08:50:45.665Z,128
2017-06-15T08:51:45.270Z,128
2017-06-15T08:52:45.571Z,128
2017-06-15T08:53:45.475Z,128
2017-06-15T08:54:45.412Z,136
2017-06-15T08:55:45.025Z,92
2017-06-15T08:56:44.961Z,96
2017-06-15T08:57:45.230Z,96
2017-06-15T08:58:45.166Z,128
2017-06-15T08:59:44.786Z,132
2017-06-15T09:00:45.046Z,128
2017-06-15T09:01:44.990Z,124
2017-06-15T09:02:45.233Z,124
2017-06-15T09:03:44.905Z,128
2017-06-15T09:04:44.466Z,68
2017-06-15T09:05:44.741Z,120
2017-06-15T09:06:44.676Z,128
2017-06-15T09:07:44.612Z,140
2017-06-15T09:08:44.560Z,140
2017-06-15T09:09:44.487Z,144
2017-06-15T09:10:44.450Z,148
2017-06-15T09:11:44.365Z,144
2017-06-15T09:12:44.305Z,144
2017-06-15T09:13:44.249Z,144
2017-06-15T09:14:44.185Z,136
2017-06-15T09:15:44.192Z,124
2017-06-15T09:16:43.868Z,84
2017-06-15T09:17:43.785Z,116
2017-06-15T09:18:43.951Z,112
2017-06-15T09:19:44.018Z,136
2017-06-15T09:20:43.831Z,144
2017-06-15T09:21:43.425Z,148
2017-06-15T09:22:43.696Z,148
2017-06-15T09:23:43.773Z,156
2017-06-15T09:24:43.301Z,164
2017-06-15T09:25:43.486Z,164
2017-06-15T09:26:43.679Z,156
2017-06-15T09:27:43.513Z,168
2017-06-15T09:28:43.560Z,160
2017-06-15T09:29:43.408Z,160
2017-06-15T09:30:43.281Z,156
2017-06-15T09:31:43.150Z,152
2017-06-15T09:32:43.084Z,152
2017-06-15T09:33:43.016Z,152
2017-06-15T09:34:42.953Z,148
2017-06-15T09:35:43.046Z,156
2017-06-15T09:36:42.835Z,156
2017-06-15T09:37:42.116Z,156
2017-06-15T09:38:42.708Z,164
2017-06-15T09:39:42.652Z,164
2017-06-15T09:40:42.592Z,168
2017-06-15T09:41:42.531Z,168
2017-06-15T09:42:42.151Z,168
2017-06-15T09:43:42.403Z,164
2017-06-15T09:44:42.351Z,160
2017-06-15T09:45:42.389Z,164
2017-06-15T09:46:41.892Z,156
2017-06-15T09:47:41.832Z,156
2017-06-15T09:48:42.130Z,160
2017-06-15T09:49:42.052Z,160
2017-06-15T09:50:41.661Z,160
2017-06-15T09:51:41.909Z,160
2017-06-15T09:52:41.520Z,164
2017-06-15T09:53:41.821Z,168
2017-06-15T09:54:41.728Z,148
2017-06-15T09:55:41.661Z,164
2017-06-15T09:56:41.602Z,168
2017-06-15T09:57:41.587Z,164
2017-06-15T09:58:41.478Z,160
2017-06-15T09:59:41.417Z,164
2017-06-15T10:00:41.357Z,156
2017-06-15T10:01:41.295Z,156
2017-06-15T10:02:40.588Z,164
2017-06-15T10:03:41.175Z,168
2017-06-15T10:04:41.108Z,172
2017-06-15T10:05:41.070Z,172
2017-06-15T10:06:40.994Z,164
2017-06-15T10:07:40.931Z,168
2017-06-15T10:08:40.868Z,168
2017-06-15T10:09:40.801Z,168
2017-06-15T10:10:40.741Z,164
2017-06-15T10:11:40.679Z,172
2017-06-15T10:12:40.613Z,168
2017-06-15T10:13:40.560Z,164
2017-06-15T10:14:40.490Z,172
2017-06-15T10:15:40.503Z,172
2017-06-15T10:16:40.367Z,172
2017-06-15T10:17:39.987Z,176
2017-06-15T10:18:40.247Z,176
2017-06-15T10:19:39.857Z,184
2017-06-15T10:20:40.124Z,192
2017-06-15T10:21:39.743Z,192
2017-06-15T10:22:39.678Z,188
2017-06-15T10:23:39.935Z,184
2017-06-15T10:24:39.887Z,180
2017-06-15T10:25:39.814Z,184
2017-06-15T10:26:39.759Z,192
2017-06-15T10:27:39.699Z,192
2017-06-15T10:28:39.628Z,196
2017-06-15T10:29:39.567Z,200
2017-06-15T10:30:39.504Z,200
2017-06-15T10:31:39.448Z,192
2017-06-15T10:32:39.061Z,200
2017-06-15T10:33:39.319Z,196
2017-06-15T10:34:39.356Z,196
2017-06-15T10:35:38.873Z,200
2017-06-15T10:36:38.805Z,200
2017-06-15T10:37:39.077Z,200
2017-06-15T10:38:39.065Z,196
2017-06-15T10:39:38.949Z,196
2017-06-15T10:40:38.896Z,196
2017-06-15T10:41:38.831Z,196
2017-06-15T10:42:38.765Z,196
2017-06-15T10:43:38.706Z,192
2017-06-15T10:44:38.662Z,196
2017-06-15T10:45:38.621Z,196
2017-06-15T10:46:38.521Z,188
2017-06-15T10:47:37.803Z,192
2017-06-15T10:48:38.075Z,188
2017-06-15T10:49:38.338Z,184
2017-06-15T10:50:38.277Z,180
2017-06-15T10:51:38.210Z,172
2017-06-15T10:52:38.211Z,168
2017-06-15T10:53:37.956Z,164
2017-06-15T10:54:38.071Z,164
2017-06-15T10:55:38.110Z,164
2017-06-15T10:56:38.066Z,156
2017-06-15T10:57:37.595Z,156
2017-06-15T10:58:37.785Z,156
2017-06-15T10:59:37.487Z,156
2017-06-15T11:00:38.504Z,156
2017-06-15T11:01:37.678Z,152
2017-06-15T11:02:37.268Z,152
2017-06-15T11:03:37.510Z,152
2017-06-15T11:04:37.087Z,148
2017-06-15T11:05:37.355Z,144
2017-06-15T11:06:37.320Z,136
2017-06-15T11:07:37.232Z,140
2017-06-15T11:08:37.170Z,144
2017-06-15T11:09:37.104Z,140
2017-06-15T11:10:37.045Z,144
2017-06-15T11:11:36.987Z,144
2017-06-15T11:12:36.927Z,144
2017-06-15T11:13:36.869Z,140
2017-06-15T11:14:36.808Z,140
2017-06-15T11:15:36.745Z,132
2017-06-15T11:16:36.675Z,140
2017-06-15T11:17:36.616Z,132
2017-06-15T11:18:36.601Z,132
2017-06-15T11:19:36.222Z,136
2017-06-15T11:20:35.766Z,136
2017-06-15T11:21:36.035Z,136
2017-06-15T11:22:36.319Z,132
2017-06-15T11:23:36.238Z,136
2017-06-15T11:24:36.174Z,136
2017-06-15T11:25:36.115Z,140
2017-06-15T11:26:35.727Z,144
2017-06-15T11:27:35.990Z,136
2017-06-15T11:28:35.927Z,140
2017-06-15T11:29:35.869Z,140
2017-06-15T11:30:35.805Z,136
2017-06-15T11:31:35.743Z,148
2017-06-15T11:32:35.689Z,148
2017-06-15T11:33:35.619Z,144
2017-06-15T11:34:35.233Z,136
2017-06-15T11:35:35.178Z,124
2017-06-15T11:36:35.457Z,124
2017-06-15T11:37:35.370Z,148
2017-06-15T11:38:35.310Z,156
2017-06-15T11:39:34.927Z,152
2017-06-15T11:40:35.189Z,152
2017-06-15T11:41:35.128Z,156
2017-06-15T11:42:35.082Z,152
2017-06-15T11:43:35.023Z,152
2017-06-15T11:44:34.946Z,156
2017-06-15T11:45:34.227Z,160
2017-06-15T11:46:34.489Z,160
2017-06-15T11:47:34.762Z,148
2017-06-15T11:48:34.692Z,148
2017-06-15T11:49:34.634Z,144
2017-06-15T11:50:34.573Z,148
2017-06-15T11:51:34.180Z,148
2017-06-15T11:52:34.120Z,152
2017-06-15T11:53:34.057Z,164
2017-06-15T11:54:33.997Z,156
2017-06-15T11:55:34.261Z,164
2017-06-15T11:56:33.881Z,156
2017-06-15T11:57:34.143Z,148
2017-06-15T11:58:34.085Z,156
2017-06-15T11:59:34.014Z,152
2017-06-15T12:00:33.713Z,156
2017-06-15T12:01:33.591Z,156
2017-06-15T12:02:33.498Z,156
2017-06-15T12:03:33.525Z,152
2017-06-15T12:04:33.709Z,152
2017-06-15T12:05:33.664Z,152
2017-06-15T12:06:33.584Z,160
2017-06-15T12:07:33.526Z,168
2017-06-15T12:08:33.131Z,164
2017-06-15T12:09:33.073Z,172
2017-06-15T12:10:33.337Z,172
2017-06-15T12:11:33.274Z,176
2017-06-15T12:12:33.217Z,180
2017-06-15T12:13:32.826Z,180
2017-06-15T12:14:33.120Z,176
2017-06-15T12:15:32.696Z,172
2017-06-15T12:16:32.647Z,176
2017-06-15T12:17:32.896Z,172
2017-06-15T12:18:32.866Z,176
2017-06-15T12:19:32.775Z,172
2017-06-15T12:20:32.566Z,172
2017-06-15T12:21:32.324Z,176
2017-06-15T12:22:32.613Z,176
2017-06-15T12:23:32.533Z,180
2017-06-15T12:24:32.142Z,180
2017-06-15T12:25:32.079Z,184
2017-06-15T12:26:32.016Z,192
2017-06-15T12:27:32.283Z,192
2017-06-15T12:28:31.890Z,196
2017-06-15T12:29:32.167Z,200
2017-06-15T12:30:32.098Z,204
2017-06-15T12:31:32.047Z,208
2017-06-15T12:32:31.970Z,200
2017-06-15T12:33:31.916Z,200
2017-06-15T12:34:31.851Z,200
2017-06-15T12:35:31.788Z,204
2017-06-15T12:36:31.393Z,200
2017-06-15T12:37:31.665Z,196
2017-06-15T12:38:31.271Z,196
2017-06-15T12:39:31.535Z,196
2017-06-15T12:40:31.475Z,192
2017-06-15T12:41:31.420Z,200
2017-06-15T12:42:31.352Z,200
2017-06-15T12:43:30.959Z,200
2017-06-15T12:44:31.234Z,196
2017-06-15T12:45:31.168Z,172
2017-06-15T12:46:31.114Z,184
2017-06-15T12:47:31.044Z,188
2017-06-15T12:48:30.655Z,200
2017-06-15T12:49:30.921Z,204
2017-06-15T12:50:30.856Z,200
2017-06-15T12:51:30.796Z,204
2017-06-15T12:52:30.405Z,196
2017-06-15T12:53:30.678Z,192
2017-06-15T12:54:30.613Z,188
2017-06-15T12:55:30.548Z,196
2017-06-15T12:56:30.486Z,188
2017-06-15T12:57:30.424Z,188
2017-06-15T12:58:29.703Z,188
2017-06-15T12:59:30.300Z,188
2017-06-15T13:00:30.062Z,188
2017-06-15T13:01:29.848Z,180
2017-06-15T13:02:29.788Z,184
2017-06-15T13:03:29.727Z,188
2017-06-15T13:04:29.989Z,192
2017-06-15T13:05:29.942Z,188
2017-06-15T13:06:29.866Z,184
2017-06-15T13:07:29.807Z,176
2017-06-15T13:08:29.744Z,168
2017-06-15T13:09:29.686Z,176
2017-06-15T13:10:29.627Z,180
2017-06-15T13:11:29.567Z,172
2017-06-15T13:12:29.495Z,168
2017-06-15T13:13:29.451Z,176
2017-06-15T13:14:29.373Z,176
2017-06-15T13:15:29.136Z,172
2017-06-15T13:16:29.248Z,172
2017-06-15T13:17:29.187Z,168
2017-06-15T13:18:29.128Z,168
2017-06-15T13:19:29.073Z,160
2017-06-15T13:20:29.206Z,156
2017-06-15T13:21:28.940Z,152
2017-06-15T13:22:28.879Z,152
2017-06-15T13:23:28.813Z,160
2017-06-15T13:24:28.751Z,164
2017-06-15T13:25:28.363Z,168
2017-06-15T13:26:28.304Z,168
2017-06-15T13:27:28.568Z,168
2017-06-15T13:28:28.506Z,168
2017-06-15T13:29:28.448Z,164
2017-06-15T13:30:27.747Z,168
2017-06-15T13:31:27.995Z,172
2017-06-15T13:32:28.262Z,172
2017-06-15T13:33:27.873Z,164
2017-06-15T13:34:28.137Z,168
2017-06-15T13:35:28.073Z,172
2017-06-15T13:36:27.686Z,176
2017-06-15T13:37:27.950Z,172
2017-06-15T13:38:27.887Z,176
2017-06-15T13:39:27.502Z,188
2017-06-15T13:40:27.443Z,188
2017-06-15T13:41:27.719Z,180
2017-06-15T13:42:27.643Z,176
2017-06-15T13:43:27.580Z,184
2017-06-15T13:44:27.531Z,184
2017-06-15T13:45:27.460Z,180
2017-06-15T13:46:27.281Z,184
2017-06-15T13:47:27.332Z,180
2017-06-15T13:48:27.274Z,184
2017-06-15T13:49:27.210Z,188
2017-06-15T13:50:27.148Z,184
2017-06-15T13:51:27.090Z,180
2017-06-15T13:52:27.036Z,180
2017-06-15T13:53:26.972Z,180
2017-06-15T13:54:26.899Z,168
2017-06-15T13:55:26.982Z,168
2017-06-15T13:56:26.921Z,160
2017-06-15T13:57:26.549Z,172
2017-06-15T13:58:26.782Z,180